KBGM/BGM METAR and TAF weather

Enter ICAO airport designator
Station Type Date Time Source
KBGM METAR 2020/09/20 07:53 UTC NOAA

KBGM 200753Z AUTO 04005KT 10SM CLR 03/00 A3044 RMK AO2 SLP314 T00280000


Station Type Date Time Source
KBGM Decoded METAR 2020/09/20 07:53 UTC NOAA

BINGHAMTON REGIONAL AIRPORT, NY, United States (KBGM) 42-12N 75-59W 492M
Sep 20, 2020 - 03:53 AM EDT / 2020.09.20 0753 UTC
Wind: from the NE (040 degrees) at 6 MPH (5 KT):0
Visibility: 10 mile(s):0
Sky conditions: clear
Temperature: 37.0 F (2.8 C)
Dew Point: 32.0 F (0.0 C)
Relative Humidity: 81%
Pressure (altimeter): 30.44 in. Hg (1030 hPa)
ob: KBGM 200753Z AUTO 04005KT 10SM CLR 03/00 A3044 RMK AO2 SLP314 T00280000
cycle: 8

Station Type Date Time Source
KBGM TAF 2020/09/20 06:33 UTC NOAA

TAF KBGM 200531Z 2006/2106 01004KT P6SM FEW100 SCT200
FM201500 04007KT P6SM SKC

Example: see airport list